createdAt,value
2023-03-23T00:00:11.070Z,10.20
2023-03-23T00:01:11.886Z,10.23
2023-03-23T00:02:11.013Z,10.20
2023-03-23T00:03:10.974Z,10.17
2023-03-23T00:04:10.992Z,10.15
2023-03-23T00:05:10.940Z,10.12
2023-03-23T00:06:10.959Z,10.14
2023-03-23T00:07:10.915Z,10.12
2023-03-23T00:08:10.891Z,10.15
2023-03-23T00:09:10.904Z,10.22
2023-03-23T00:10:10.890Z,10.15
2023-03-23T00:11:10.848Z,10.15
2023-03-23T00:12:10.829Z,10.11
2023-03-23T00:13:10.877Z,10.14
2023-03-23T00:14:10.800Z,10.11
2023-03-23T00:15:10.794Z,10.11
2023-03-23T00:16:10.763Z,10.14
2023-03-23T00:17:10.742Z,10.12
2023-03-23T00:18:10.757Z,10.11
2023-03-23T00:19:10.715Z,10.08
2023-03-23T00:20:10.698Z,10.09
2023-03-23T00:21:10.683Z,10.11
2023-03-23T00:22:10.700Z,10.09
2023-03-23T00:23:10.680Z,10.05
2023-03-23T00:24:10.667Z,10.11
2023-03-23T00:25:10.648Z,10.12
2023-03-23T00:26:10.607Z,10.12
2023-03-23T00:27:10.583Z,10.08
2023-03-23T00:28:10.564Z,10.14
2023-03-23T00:29:10.548Z,10.17
2023-03-23T00:30:10.560Z,10.14
2023-03-23T00:31:10.526Z,10.09
2023-03-23T00:32:10.503Z,10.15
2023-03-23T00:33:10.484Z,10.11
2023-03-23T00:34:10.470Z,10.18
2023-03-23T00:35:10.483Z,10.26
2023-03-23T00:36:10.443Z,10.18
2023-03-23T00:37:10.420Z,10.18
2023-03-23T00:38:10.413Z,10.29
2023-03-23T00:39:10.390Z,10.26
2023-03-23T00:40:10.403Z,10.25
2023-03-23T00:41:10.354Z,10.25
2023-03-23T00:42:10.346Z,10.27
2023-03-23T00:43:10.326Z,10.29
2023-03-23T00:44:10.307Z,10.32
2023-03-23T00:45:10.329Z,10.30
2023-03-23T00:46:10.277Z,10.33
2023-03-23T00:47:10.257Z,10.30
2023-03-23T00:48:10.269Z,10.30
2023-03-23T00:49:10.231Z,10.32
2023-03-23T00:50:10.234Z,10.26
2023-03-23T00:51:10.209Z,10.30
2023-03-23T00:52:10.176Z,10.26
2023-03-23T00:53:10.200Z,10.30
2023-03-23T00:54:10.153Z,10.30
2023-03-23T00:55:10.125Z,10.27
2023-03-23T00:56:10.111Z,10.18
2023-03-23T00:57:10.092Z,10.29
2023-03-23T00:58:10.115Z,10.26
2023-03-23T00:59:10.097Z,10.27
2023-03-23T01:00:10.045Z,10.25
2023-03-23T01:01:10.046Z,10.23
2023-03-23T01:02:10.011Z,10.22
2023-03-23T01:03:10.051Z,10.26
2023-03-23T01:04:09.977Z,10.23
2023-03-23T01:05:09.970Z,10.29
2023-03-23T01:06:09.983Z,10.29
2023-03-23T01:07:09.928Z,10.23
2023-03-23T01:08:09.917Z,10.29
2023-03-23T01:09:09.946Z,10.29
2023-03-23T01:10:09.888Z,10.29
2023-03-23T01:11:09.897Z,10.29
2023-03-23T01:12:09.845Z,10.33
2023-03-23T01:13:09.828Z,10.30
2023-03-23T01:14:09.815Z,10.34
2023-03-23T01:15:09.795Z,10.32
2023-03-23T01:16:09.782Z,10.30
2023-03-23T01:17:09.789Z,10.30
2023-03-23T01:18:09.747Z,10.32
2023-03-23T01:19:09.729Z,10.34
2023-03-23T01:20:09.712Z,10.30
2023-03-23T01:21:09.723Z,10.30
2023-03-23T01:22:09.684Z,10.34
2023-03-23T01:23:09.696Z,10.41
2023-03-23T01:24:09.650Z,10.36
2023-03-23T01:25:09.631Z,10.41
2023-03-23T01:26:09.621Z,10.56
2023-03-23T01:27:09.599Z,10.47
2023-03-23T01:28:09.609Z,10.52
2023-03-23T01:29:09.566Z,10.51
2023-03-23T01:30:09.557Z,10.53
2023-03-23T01:31:14.623Z,10.47
2023-03-23T01:32:09.539Z,10.55
2023-03-23T01:33:09.497Z,10.48
2023-03-23T01:34:09.516Z,10.52
2023-03-23T01:35:09.492Z,10.52
2023-03-23T01:36:09.449Z,10.41
2023-03-23T01:37:09.431Z,10.48
2023-03-23T01:38:09.416Z,10.52
2023-03-23T01:39:09.402Z,10.51
2023-03-23T01:40:09.404Z,10.36
2023-03-23T01:41:09.368Z,10.48
2023-03-23T01:42:09.363Z,10.40
2023-03-23T01:43:09.336Z,10.52
2023-03-23T01:44:09.350Z,10.51
2023-03-23T01:45:09.303Z,10.53
2023-03-23T01:46:09.289Z,10.45
2023-03-23T01:47:09.270Z,10.40
2023-03-23T01:48:09.258Z,10.42
2023-03-23T01:49:09.264Z,10.51
2023-03-23T01:50:09.228Z,10.55
2023-03-23T01:51:09.209Z,10.55
2023-03-23T01:52:09.187Z,10.48
2023-03-23T01:53:09.982Z,10.48
2023-03-23T01:54:09.337Z,10.53
2023-03-23T01:55:09.145Z,10.45
2023-03-23T01:56:09.126Z,10.56
2023-03-23T01:57:09.109Z,10.53
2023-03-23T01:58:09.100Z,10.38
2023-03-23T01:59:09.130Z,10.47
2023-03-23T02:00:09.060Z,10.55
2023-03-23T02:01:09.040Z,10.53
2023-03-23T02:02:09.026Z,10.56
2023-03-23T02:03:09.011Z,10.47
2023-03-23T02:04:08.993Z,10.66
2023-03-23T02:05:08.977Z,10.63
2023-03-23T02:06:08.973Z,10.63
2023-03-23T02:07:08.946Z,10.68
2023-03-23T02:08:08.929Z,10.64
2023-03-23T02:09:10.637Z,10.61
2023-03-23T02:10:08.922Z,10.56
2023-03-23T02:11:08.876Z,10.64
2023-03-23T02:12:08.862Z,10.56
2023-03-23T02:13:08.937Z,10.56
2023-03-23T02:14:08.838Z,10.51
2023-03-23T02:15:08.848Z,10.63
2023-03-23T02:16:08.794Z,10.63
2023-03-23T02:17:08.806Z,10.64
2023-03-23T02:18:08.762Z,10.61
2023-03-23T02:19:08.745Z,10.60
2023-03-23T02:20:08.730Z,10.63
2023-03-23T02:21:08.746Z,10.68
2023-03-23T02:22:08.700Z,10.67
2023-03-23T02:23:08.677Z,10.63
2023-03-23T02:24:08.663Z,10.70
2023-03-23T02:25:08.646Z,10.74
2023-03-23T02:26:08.635Z,10.68
2023-03-23T02:27:08.644Z,10.59
2023-03-23T02:28:08.617Z,10.74
2023-03-23T02:29:08.587Z,10.71
2023-03-23T02:30:08.579Z,10.71
2023-03-23T02:31:08.547Z,10.68
2023-03-23T02:32:08.536Z,10.70
2023-03-23T02:33:08.517Z,10.74
2023-03-23T02:34:08.505Z,10.78
2023-03-23T02:35:08.481Z,10.78
2023-03-23T02:36:08.496Z,10.88
2023-03-23T02:37:08.449Z,10.76
2023-03-23T02:38:08.484Z,10.82
2023-03-23T02:39:08.422Z,10.86
2023-03-23T02:40:08.424Z,10.85
2023-03-23T02:41:08.382Z,10.94
2023-03-23T02:42:13.489Z,10.97
2023-03-23T02:43:08.351Z,10.96
2023-03-23T02:44:08.365Z,10.88
2023-03-23T02:45:08.320Z,11.03
2023-03-23T02:46:08.311Z,11.00
2023-03-23T02:47:08.282Z,10.99
2023-03-23T02:48:08.277Z,11.10
2023-03-23T02:49:08.657Z,11.09
2023-03-23T02:50:08.236Z,11.04
2023-03-23T02:51:08.249Z,11.03
2023-03-23T02:52:08.202Z,11.09
2023-03-23T02:53:08.188Z,11.09
2023-03-23T02:54:08.170Z,11.04
2023-03-23T02:55:08.179Z,11.02
2023-03-23T02:56:08.193Z,11.00
2023-03-23T02:57:08.119Z,11.03
2023-03-23T02:58:08.105Z,11.04
2023-03-23T02:59:08.087Z,11.00
2023-03-23T03:00:08.073Z,11.00
2023-03-23T03:01:08.069Z,11.02
2023-03-23T03:02:08.048Z,11.02
2023-03-23T03:03:08.021Z,11.02
2023-03-23T03:04:08.014Z,11.00
2023-03-23T03:05:07.987Z,11.04
2023-03-23T03:06:07.979Z,11.06
2023-03-23T03:07:07.961Z,11.03
2023-03-23T03:08:07.938Z,11.09
2023-03-23T03:09:07.924Z,11.03
2023-03-23T03:10:07.905Z,11.04
2023-03-23T03:11:07.892Z,11.03
2023-03-23T03:12:07.902Z,11.04
2023-03-23T03:13:07.856Z,11.03
2023-03-23T03:14:07.842Z,11.06
2023-03-23T03:15:07.830Z,11.03
2023-03-23T03:16:07.813Z,11.10
2023-03-23T03:17:07.799Z,11.09
2023-03-23T03:18:07.816Z,11.21
2023-03-23T03:19:07.785Z,11.11
2023-03-23T03:20:07.749Z,11.15
2023-03-23T03:21:07.733Z,11.04
2023-03-23T03:22:07.722Z,11.07
2023-03-23T03:23:07.696Z,11.11
2023-03-23T03:24:07.712Z,11.09
2023-03-23T03:25:18.179Z,11.03
2023-03-23T03:26:07.650Z,11.00
2023-03-23T03:27:07.638Z,11.00
2023-03-23T03:28:07.628Z,11.00
2023-03-23T03:29:07.654Z,11.00
2023-03-23T03:30:07.588Z,10.88
2023-03-23T03:31:07.566Z,10.92
2023-03-23T03:32:07.551Z,10.88
2023-03-23T03:33:07.537Z,10.89
2023-03-23T03:34:07.530Z,10.91
2023-03-23T03:35:07.505Z,11.07
2023-03-23T03:36:07.547Z,10.96
2023-03-23T03:37:07.471Z,11.03
2023-03-23T03:38:07.458Z,11.00
2023-03-23T03:39:07.439Z,11.02
2023-03-23T03:40:07.470Z,10.89
2023-03-23T03:41:07.404Z,11.00
2023-03-23T03:42:07.389Z,11.00
2023-03-23T03:43:07.395Z,11.00
2023-03-23T03:44:07.358Z,10.99
2023-03-23T03:45:07.342Z,11.03
2023-03-23T03:46:07.372Z,10.99
2023-03-23T03:47:07.308Z,10.92
2023-03-23T03:48:37.843Z,10.94
2023-03-23T03:49:07.284Z,10.84
2023-03-23T03:50:07.266Z,10.96
2023-03-23T03:51:07.246Z,11.02
2023-03-23T03:52:07.231Z,10.99
2023-03-23T03:53:07.219Z,10.92
2023-03-23T03:54:07.226Z,10.89
2023-03-23T03:55:07.191Z,10.82
2023-03-23T03:56:07.168Z,10.84
2023-03-23T03:57:07.155Z,10.92
2023-03-23T03:58:07.127Z,10.89
2023-03-23T03:59:22.136Z,10.97
2023-03-23T04:00:07.102Z,10.97
2023-03-23T04:01:07.078Z,10.89
2023-03-23T04:02:07.064Z,10.94
2023-03-23T04:03:07.051Z,10.97
2023-03-23T04:04:07.074Z,11.00
2023-03-23T04:05:07.013Z,10.99
2023-03-23T04:06:07.008Z,10.96
2023-03-23T04:07:06.988Z,11.02
2023-03-23T04:08:09.241Z,11.00
2023-03-23T04:09:07.610Z,11.00
2023-03-23T04:10:06.972Z,10.97
2023-03-23T04:11:06.917Z,10.97
2023-03-23T04:12:06.900Z,10.94
2023-03-23T04:13:06.891Z,11.03
2023-03-23T04:14:06.892Z,11.02
2023-03-23T04:15:06.918Z,10.94
2023-03-23T04:16:10.059Z,11.02
2023-03-23T04:17:06.821Z,11.00
2023-03-23T04:18:06.812Z,11.00
2023-03-23T04:19:06.803Z,10.96
2023-03-23T04:20:06.777Z,10.92
2023-03-23T04:21:06.757Z,10.96
2023-03-23T04:22:06.780Z,10.97
2023-03-23T04:23:06.722Z,11.02
2023-03-23T04:24:06.761Z,11.02
2023-03-23T04:25:06.687Z,11.02
2023-03-23T04:26:06.677Z,10.91
2023-03-23T04:27:06.655Z,11.00
2023-03-23T04:28:06.638Z,11.00
2023-03-23T04:29:06.626Z,11.02
2023-03-23T04:30:06.653Z,11.00
2023-03-23T04:31:06.592Z,11.06
2023-03-23T04:32:06.573Z,11.09
2023-03-23T04:33:06.558Z,11.04
2023-03-23T04:34:06.554Z,11.09
2023-03-23T04:35:12.795Z,11.10
2023-03-23T04:36:06.572Z,11.06
2023-03-23T04:37:06.495Z,11.07
2023-03-23T04:38:06.488Z,11.15
2023-03-23T04:39:06.469Z,11.24
2023-03-23T04:40:06.448Z,11.14
2023-03-23T04:41:06.456Z,11.14
2023-03-23T04:42:06.410Z,11.10
2023-03-23T04:43:06.410Z,11.03
2023-03-23T04:44:06.384Z,11.15
2023-03-23T04:45:06.367Z,11.17
2023-03-23T04:46:06.345Z,11.07
2023-03-23T04:47:06.344Z,11.06
2023-03-23T04:48:06.317Z,11.06
2023-03-23T04:49:06.313Z,11.07
2023-03-23T04:50:06.303Z,11.15
2023-03-23T04:51:06.268Z,11.09
2023-03-23T04:52:06.257Z,11.06
2023-03-23T04:53:06.235Z,11.02
2023-03-23T04:54:06.222Z,11.06
2023-03-23T04:55:06.228Z,11.07
2023-03-23T04:56:06.180Z,11.09
2023-03-23T04:57:06.166Z,11.04
2023-03-23T04:58:06.153Z,11.09
2023-03-23T04:59:06.137Z,11.07
2023-03-23T05:00:06.163Z,11.14
2023-03-23T05:01:06.107Z,11.11
2023-03-23T05:02:14.642Z,11.06
2023-03-23T05:03:06.071Z,11.11
2023-03-23T05:04:06.063Z,11.17
2023-03-23T05:05:06.050Z,11.15
2023-03-23T05:06:06.036Z,11.21
2023-03-23T05:07:06.006Z,11.10
2023-03-23T05:08:05.989Z,11.10
2023-03-23T05:09:05.973Z,11.04
2023-03-23T05:10:05.962Z,11.06
2023-03-23T05:11:05.952Z,11.04
2023-03-23T05:12:05.921Z,11.04
2023-03-23T05:13:05.932Z,11.07
2023-03-23T05:14:05.894Z,11.04
2023-03-23T05:15:05.875Z,11.06
2023-03-23T05:16:05.862Z,11.09
2023-03-23T05:17:05.880Z,11.10
2023-03-23T05:18:05.826Z,11.04
2023-03-23T05:19:05.807Z,11.11
2023-03-23T05:20:05.805Z,11.04
2023-03-23T05:21:05.778Z,11.09
2023-03-23T05:22:05.756Z,11.10
2023-03-23T05:23:05.748Z,11.14
2023-03-23T05:24:05.726Z,11.04
2023-03-23T05:25:05.765Z,11.11
2023-03-23T05:26:05.708Z,11.18
2023-03-23T05:27:05.681Z,11.09
2023-03-23T05:28:05.666Z,11.19
2023-03-23T05:29:05.656Z,11.15
2023-03-23T05:30:05.644Z,11.19
2023-03-23T05:31:05.647Z,11.17
2023-03-23T05:32:05.600Z,11.11
2023-03-23T05:33:05.580Z,11.18
2023-03-23T05:34:05.593Z,11.18
2023-03-23T05:35:05.596Z,11.10
2023-03-23T05:36:05.625Z,11.04
2023-03-23T05:37:05.514Z,11.06
2023-03-23T05:38:05.498Z,11.11
2023-03-23T05:39:05.496Z,11.17
2023-03-23T05:40:05.466Z,11.24
2023-03-23T05:41:05.508Z,11.19
2023-03-23T05:42:05.451Z,11.17
2023-03-23T05:43:05.417Z,11.11
2023-03-23T05:44:05.412Z,11.21
2023-03-23T05:45:05.499Z,11.18
2023-03-23T05:46:05.394Z,11.24
2023-03-23T05:47:05.350Z,11.25
2023-03-23T05:48:05.338Z,11.21
2023-03-23T05:49:05.317Z,11.27
2023-03-23T05:50:05.314Z,11.22
2023-03-23T05:51:05.320Z,11.22
2023-03-23T05:52:05.274Z,11.18
2023-03-23T05:53:05.262Z,11.24
2023-03-23T05:54:05.243Z,11.24
2023-03-23T05:55:05.224Z,11.24
2023-03-23T05:56:05.204Z,11.36
2023-03-23T05:57:05.189Z,11.29
2023-03-23T05:58:05.181Z,11.28
2023-03-23T05:59:05.264Z,11.22
2023-03-23T06:00:05.138Z,11.24
2023-03-23T06:01:05.122Z,11.29
2023-03-23T06:02:05.111Z,11.22
2023-03-23T06:03:05.090Z,11.22
2023-03-23T06:04:05.074Z,11.39
2023-03-23T06:05:05.065Z,11.28
2023-03-23T06:06:05.048Z,11.28
2023-03-23T06:07:05.071Z,11.24
2023-03-23T06:08:05.009Z,11.36
2023-03-23T06:09:06.625Z,11.37
2023-03-23T06:10:04.982Z,11.32
2023-03-23T06:11:04.976Z,11.32
2023-03-23T06:12:04.972Z,11.33
2023-03-23T06:13:04.954Z,11.33
2023-03-23T06:14:04.927Z,11.40
2023-03-23T06:15:12.489Z,11.37
2023-03-23T06:16:04.879Z,11.36
2023-03-23T06:17:04.864Z,11.35
2023-03-23T06:18:04.883Z,11.32
2023-03-23T06:19:04.832Z,11.35
2023-03-23T06:20:04.817Z,11.42
2023-03-23T06:21:04.824Z,11.33
2023-03-23T06:22:04.782Z,11.35
2023-03-23T06:23:04.796Z,11.35
2023-03-23T06:24:04.749Z,11.37
2023-03-23T06:25:04.736Z,11.35
2023-03-23T06:26:04.797Z,11.29
2023-03-23T06:27:04.707Z,11.37
2023-03-23T06:28:04.712Z,11.35
2023-03-23T06:29:04.680Z,11.47
2023-03-23T06:30:04.670Z,11.44
2023-03-23T06:31:04.668Z,11.44
2023-03-23T06:32:04.624Z,11.44
2023-03-23T06:33:04.641Z,11.43
2023-03-23T06:34:04.591Z,11.40
2023-03-23T06:35:04.662Z,11.44
2023-03-23T06:36:04.606Z,11.44
2023-03-23T06:37:04.545Z,11.43
2023-03-23T06:38:04.565Z,11.57
2023-03-23T06:39:04.513Z,11.51
2023-03-23T06:40:04.500Z,11.64
2023-03-23T06:41:04.482Z,11.60
2023-03-23T06:42:04.464Z,11.54
2023-03-23T06:43:04.451Z,11.69
2023-03-23T06:44:04.434Z,11.69
2023-03-23T06:45:04.455Z,11.65
2023-03-23T06:46:04.408Z,11.67
2023-03-23T06:47:04.395Z,11.72
2023-03-23T06:48:04.396Z,11.64
2023-03-23T06:49:04.353Z,11.65
2023-03-23T06:50:04.337Z,11.73
2023-03-23T06:51:04.326Z,11.78
2023-03-23T06:52:04.316Z,11.75
2023-03-23T06:53:04.288Z,11.78
2023-03-23T06:54:04.311Z,11.79
2023-03-23T06:55:04.258Z,11.73
2023-03-23T06:56:04.237Z,11.82
2023-03-23T06:57:04.225Z,11.82
2023-03-23T06:58:04.211Z,11.79
2023-03-23T06:59:04.228Z,11.82
2023-03-23T07:00:04.235Z,11.73
2023-03-23T07:01:04.162Z,11.72
2023-03-23T07:02:04.152Z,11.72
2023-03-23T07:03:04.133Z,11.80
2023-03-23T07:04:04.117Z,11.75
2023-03-23T07:05:04.095Z,11.82
2023-03-23T07:06:04.691Z,11.82
2023-03-23T07:07:04.070Z,11.82
2023-03-23T07:08:04.048Z,11.79
2023-03-23T07:09:04.069Z,11.78
2023-03-23T07:10:04.016Z,11.80
2023-03-23T07:11:04.008Z,11.91
2023-03-23T07:12:03.993Z,11.95
2023-03-23T07:13:03.972Z,11.95
2023-03-23T07:14:04.011Z,12.05
2023-03-23T07:15:03.937Z,12.12
2023-03-23T07:16:03.928Z,12.07
2023-03-23T07:17:04.003Z,12.10
2023-03-23T07:18:03.898Z,12.19
2023-03-23T07:19:03.878Z,12.27
2023-03-23T07:20:03.867Z,12.28
2023-03-23T07:21:03.844Z,12.29
2023-03-23T07:22:03.831Z,12.34
2023-03-23T07:23:03.814Z,12.37
2023-03-23T07:24:03.816Z,12.37
2023-03-23T07:25:03.810Z,12.45
2023-03-23T07:26:03.771Z,12.42
2023-03-23T07:27:03.767Z,12.42
2023-03-23T07:28:03.740Z,12.39
2023-03-23T07:29:03.720Z,12.42
2023-03-23T07:30:03.760Z,12.45
2023-03-23T07:31:03.697Z,12.41
2023-03-23T07:32:03.679Z,12.41
2023-03-23T07:33:03.661Z,12.37
2023-03-23T07:34:03.664Z,12.37
2023-03-23T07:35:03.629Z,12.41
2023-03-23T07:36:03.661Z,12.38
2023-03-23T07:37:03.625Z,12.41
2023-03-23T07:38:03.584Z,12.38
2023-03-23T07:39:03.567Z,12.42
2023-03-23T07:40:03.551Z,12.41
2023-03-23T07:41:03.568Z,12.39
2023-03-23T07:42:03.521Z,12.42
2023-03-23T07:43:03.506Z,12.42
2023-03-23T07:44:03.493Z,12.39
2023-03-23T07:45:03.489Z,12.38
2023-03-23T07:46:03.518Z,12.41
2023-03-23T07:47:03.453Z,12.39
2023-03-23T07:48:05.288Z,12.46
2023-03-23T07:49:03.416Z,12.39
2023-03-23T07:50:03.412Z,12.41
2023-03-23T07:51:03.397Z,12.35
2023-03-23T07:52:03.371Z,12.50
2023-03-23T07:53:03.357Z,12.53
2023-03-23T07:54:05.161Z,12.54
2023-03-23T07:55:03.360Z,12.54
2023-03-23T07:56:03.310Z,12.54
2023-03-23T07:57:03.302Z,12.52
2023-03-23T07:58:03.279Z,12.54
2023-03-23T07:59:03.282Z,12.57
2023-03-23T08:00:03.294Z,12.57
2023-03-23T08:01:03.242Z,12.54
2023-03-23T08:02:03.216Z,12.53
2023-03-23T08:03:03.203Z,12.52
2023-03-23T08:04:03.187Z,12.57
2023-03-23T08:05:03.171Z,12.62
2023-03-23T08:06:03.171Z,12.67
2023-03-23T08:07:03.143Z,12.59
2023-03-23T08:08:03.124Z,12.67
2023-03-23T08:09:03.112Z,12.60
2023-03-23T08:10:03.096Z,12.62
2023-03-23T08:11:03.088Z,12.64
2023-03-23T08:12:03.062Z,12.59
2023-03-23T08:13:03.049Z,12.57
2023-03-23T08:14:03.111Z,12.56
2023-03-23T08:15:03.019Z,12.64
2023-03-23T08:16:03.032Z,12.57
2023-03-23T08:17:02.990Z,12.64
2023-03-23T08:18:03.008Z,12.68
2023-03-23T08:19:08.451Z,12.60
2023-03-23T08:20:02.948Z,12.59
2023-03-23T08:21:02.928Z,12.57
2023-03-23T08:22:02.952Z,12.53
2023-03-23T08:23:02.897Z,12.50
2023-03-23T08:24:02.879Z,12.41
2023-03-23T08:25:02.872Z,12.41
2023-03-23T08:26:02.855Z,12.38
2023-03-23T08:27:02.866Z,12.29
2023-03-23T08:28:02.830Z,12.34
2023-03-23T08:29:02.844Z,12.24
2023-03-23T08:30:02.795Z,12.27
2023-03-23T08:31:02.784Z,12.24
2023-03-23T08:32:02.787Z,12.28
2023-03-23T08:33:02.752Z,12.27
2023-03-23T08:34:02.728Z,12.21
2023-03-23T08:35:02.739Z,12.20
2023-03-23T08:36:02.721Z,12.20
2023-03-23T08:37:02.684Z,12.35
2023-03-23T08:38:02.678Z,12.37
2023-03-23T08:39:02.680Z,12.41
2023-03-23T08:40:02.661Z,12.42
2023-03-23T08:41:02.621Z,12.42
2023-03-23T08:42:02.615Z,12.39
2023-03-23T08:43:02.611Z,12.42
2023-03-23T08:44:02.583Z,12.42
2023-03-23T08:45:02.558Z,12.41
2023-03-23T08:46:02.565Z,12.41
2023-03-23T08:47:02.529Z,12.41
2023-03-23T08:48:02.543Z,12.38
2023-03-23T08:49:02.523Z,12.39
2023-03-23T08:50:02.492Z,12.35
2023-03-23T08:51:02.529Z,12.42
2023-03-23T08:52:02.458Z,12.35
2023-03-23T08:53:02.484Z,12.38
2023-03-23T08:54:02.433Z,12.37
2023-03-23T08:55:02.409Z,12.35
2023-03-23T08:56:02.398Z,12.23
2023-03-23T08:57:02.377Z,12.27
2023-03-23T08:58:02.370Z,12.34
2023-03-23T08:59:02.390Z,12.21
2023-03-23T09:00:02.339Z,12.20
2023-03-23T09:01:02.316Z,12.31
2023-03-23T09:02:02.303Z,12.34
2023-03-23T09:03:02.291Z,12.38
2023-03-23T09:04:02.275Z,12.49
2023-03-23T09:05:02.260Z,12.39
2023-03-23T09:06:02.250Z,12.38
2023-03-23T09:07:02.236Z,12.39
2023-03-23T09:08:02.213Z,12.41
2023-03-23T09:09:02.222Z,12.46
2023-03-23T09:10:02.193Z,12.41
2023-03-23T09:11:02.166Z,12.49
2023-03-23T09:12:02.152Z,12.52
2023-03-23T09:13:02.135Z,12.38
2023-03-23T09:14:02.148Z,12.39
2023-03-23T09:15:02.108Z,12.45
2023-03-23T09:16:02.194Z,12.41
2023-03-23T09:17:02.085Z,12.42
2023-03-23T09:18:02.468Z,12.41
2023-03-23T09:19:02.072Z,12.42
2023-03-23T09:20:02.030Z,12.42
2023-03-23T09:21:02.015Z,12.56
2023-03-23T09:22:02.002Z,12.50
2023-03-23T09:23:01.982Z,12.53
2023-03-23T09:24:01.974Z,12.47
2023-03-23T09:25:01.952Z,12.54
2023-03-23T09:26:02.089Z,12.50
2023-03-23T09:27:01.937Z,12.50
2023-03-23T09:28:01.910Z,12.53
2023-03-23T09:29:01.898Z,12.50
2023-03-23T09:30:01.910Z,12.41
2023-03-23T09:31:01.863Z,12.38
2023-03-23T09:32:01.864Z,12.41
2023-03-23T09:33:01.833Z,12.39
2023-03-23T09:34:01.823Z,12.42
2023-03-23T09:35:01.844Z,12.41
2023-03-23T09:36:01.821Z,12.42
2023-03-23T09:37:01.775Z,12.42
2023-03-23T09:38:01.756Z,12.41
2023-03-23T09:39:01.752Z,12.39
2023-03-23T09:40:06.757Z,12.37
2023-03-23T09:41:01.742Z,12.50
2023-03-23T09:42:01.710Z,12.52
2023-03-23T09:43:01.682Z,12.57
2023-03-23T09:44:01.724Z,12.62
2023-03-23T09:45:01.653Z,12.59
2023-03-23T09:46:01.642Z,12.68
2023-03-23T09:47:01.629Z,12.67
2023-03-23T09:48:01.603Z,12.68
2023-03-23T09:49:01.591Z,12.65
2023-03-23T09:50:01.605Z,12.65
2023-03-23T09:51:01.560Z,12.68
2023-03-23T09:52:01.542Z,12.70
2023-03-23T09:53:01.528Z,12.72
2023-03-23T09:54:01.512Z,12.70
2023-03-23T09:55:01.534Z,12.62
2023-03-23T09:56:01.483Z,12.67
2023-03-23T09:57:01.469Z,12.65
2023-03-23T09:58:01.461Z,12.64
2023-03-23T09:59:01.471Z,12.65
2023-03-23T10:00:01.421Z,12.65
2023-03-23T10:01:01.438Z,12.52
2023-03-23T10:02:01.390Z,12.53
2023-03-23T10:03:01.402Z,12.35
2023-03-23T10:04:01.362Z,12.45
2023-03-23T10:05:01.349Z,12.38
2023-03-23T10:06:01.333Z,12.34
2023-03-23T10:07:01.329Z,12.32
2023-03-23T10:08:01.314Z,12.23
2023-03-23T10:09:01.283Z,12.27
2023-03-23T10:10:01.273Z,12.21
2023-03-23T10:11:01.283Z,12.20
2023-03-23T10:12:01.273Z,12.17
2023-03-23T10:13:01.222Z,12.21
2023-03-23T10:14:01.218Z,12.14
2023-03-23T10:15:01.196Z,12.09
2023-03-23T10:16:01.176Z,11.95
2023-03-23T10:17:01.225Z,11.78
2023-03-23T10:18:01.147Z,11.70
2023-03-23T10:19:01.136Z,11.67
2023-03-23T10:20:01.129Z,11.54
2023-03-23T10:21:01.101Z,11.51
2023-03-23T10:22:01.119Z,11.44
2023-03-23T10:23:01.080Z,11.36
2023-03-23T10:24:01.065Z,11.33
2023-03-23T10:25:01.038Z,11.24
2023-03-23T10:26:01.022Z,11.22
2023-03-23T10:27:01.057Z,11.14
2023-03-23T10:28:00.993Z,11.14
2023-03-23T10:29:00.976Z,11.02
2023-03-23T10:30:00.968Z,11.07
2023-03-23T10:31:00.947Z,10.99
2023-03-23T10:32:01.198Z,10.99
2023-03-23T10:33:00.914Z,11.00
2023-03-23T10:34:00.898Z,10.97
2023-03-23T10:35:00.901Z,10.97
2023-03-23T10:36:00.920Z,11.00
2023-03-23T10:37:00.851Z,10.94
2023-03-23T10:38:00.861Z,10.89
2023-03-23T10:39:00.819Z,10.82
2023-03-23T10:40:00.809Z,10.89
2023-03-23T10:41:00.786Z,10.94
2023-03-23T10:42:00.784Z,10.86
2023-03-23T10:43:00.782Z,10.91
2023-03-23T10:44:00.743Z,10.85
2023-03-23T10:45:00.723Z,10.85
2023-03-23T10:46:01.097Z,10.81
2023-03-23T10:47:00.692Z,10.74
2023-03-23T10:48:00.740Z,10.73
2023-03-23T10:49:00.658Z,10.66
2023-03-23T10:50:00.659Z,10.63
2023-03-23T10:51:00.636Z,10.71
2023-03-23T10:52:00.616Z,10.76
2023-03-23T10:53:00.620Z,10.63
2023-03-23T10:54:00.585Z,10.60
2023-03-23T10:55:00.569Z,10.61
2023-03-23T10:56:00.551Z,10.64
2023-03-23T10:57:02.598Z,10.56
2023-03-23T10:58:00.554Z,10.64
2023-03-23T10:59:00.528Z,10.63
2023-03-23T11:00:00.506Z,10.63
2023-03-23T11:01:00.465Z,10.76
2023-03-23T11:02:00.463Z,10.70
2023-03-23T11:03:00.433Z,10.76
2023-03-23T11:04:00.460Z,10.82
2023-03-23T11:05:05.144Z,10.67
2023-03-23T11:06:00.388Z,10.74
2023-03-23T11:07:00.369Z,10.68
2023-03-23T11:08:00.352Z,10.61
2023-03-23T11:09:00.371Z,10.60
2023-03-23T11:10:00.320Z,10.53
2023-03-23T11:11:00.460Z,10.56
2023-03-23T11:12:02.281Z,10.52
2023-03-23T11:13:00.385Z,10.36
2023-03-23T11:14:00.585Z,10.53
2023-03-23T11:15:00.378Z,10.38
2023-03-23T11:16:00.324Z,10.53
2023-03-23T11:17:10.337Z,10.47
2023-03-23T11:18:00.309Z,10.51
2023-03-23T11:19:00.312Z,10.42
2023-03-23T11:20:00.270Z,10.47
2023-03-23T11:21:00.261Z,10.45
2023-03-23T11:22:00.478Z,10.45
2023-03-23T11:23:00.254Z,10.55
2023-03-23T11:24:09.238Z,10.56
2023-03-23T11:25:00.251Z,10.47
2023-03-23T11:26:00.195Z,10.45
2023-03-23T11:27:00.046Z,10.45
2023-03-23T11:28:00.148Z,10.53
2023-03-23T11:29:00.157Z,10.53
2023-03-23T11:30:00.173Z,10.55
2023-03-23T11:31:00.082Z,10.52
2023-03-23T11:32:00.149Z,10.56
2023-03-23T11:33:00.011Z,10.56
2023-03-23T11:34:05.864Z,10.55
2023-03-23T11:35:13.800Z,10.66
2023-03-23T11:36:00.004Z,10.81
2023-03-23T11:37:00.027Z,10.81
2023-03-23T11:37:59.991Z,10.88
2023-03-23T11:38:59.975Z,11.02
2023-03-23T11:40:00.128Z,10.99
2023-03-23T11:40:59.933Z,10.96
2023-03-23T11:42:09.061Z,10.91
2023-03-23T11:42:59.860Z,10.84
2023-03-23T11:43:59.771Z,10.71
2023-03-23T11:44:59.781Z,10.76
2023-03-23T11:45:59.785Z,10.70
2023-03-23T11:46:59.733Z,10.63
2023-03-23T11:47:59.710Z,10.52
2023-03-23T11:48:59.689Z,10.53
2023-03-23T11:49:59.722Z,10.53
2023-03-23T11:50:59.657Z,10.40
2023-03-23T11:51:59.640Z,10.38
2023-03-23T11:52:59.649Z,10.53
2023-03-23T11:53:59.710Z,10.48
2023-03-23T11:54:59.613Z,10.55
2023-03-23T11:55:59.624Z,10.38
2023-03-23T11:56:59.558Z,10.42
2023-03-23T11:57:59.573Z,10.33
2023-03-23T11:58:59.522Z,10.38
2023-03-23T11:59:59.518Z,10.34
2023-03-23T12:00:59.519Z,10.44
2023-03-23T12:02:08.506Z,10.44
2023-03-23T12:02:59.456Z,10.42
2023-03-23T12:03:59.450Z,10.40
2023-03-23T12:04:59.500Z,10.47
2023-03-23T12:05:59.421Z,10.51
2023-03-23T12:06:59.393Z,10.52
2023-03-23T12:07:59.375Z,10.48
2023-03-23T12:08:59.360Z,10.38
2023-03-23T12:09:59.340Z,10.41
2023-03-23T12:11:01.628Z,10.51
2023-03-23T12:11:59.310Z,10.53
2023-03-23T12:12:59.295Z,10.56
2023-03-23T12:13:59.303Z,10.53
2023-03-23T12:14:59.289Z,10.52
2023-03-23T12:15:59.240Z,10.52
2023-03-23T12:16:59.224Z,10.41
2023-03-23T12:17:59.235Z,10.51
2023-03-23T12:18:59.196Z,10.42
2023-03-23T12:19:59.180Z,10.48
2023-03-23T12:20:59.164Z,10.56
2023-03-23T12:21:59.179Z,10.48
2023-03-23T12:22:59.131Z,10.55
2023-03-23T12:24:01.477Z,10.51
2023-03-23T12:24:59.102Z,10.44
2023-03-23T12:25:59.098Z,10.52
2023-03-23T12:26:59.064Z,10.48
2023-03-23T12:27:59.047Z,10.55
2023-03-23T12:28:59.029Z,10.52
2023-03-23T12:29:59.041Z,10.53
2023-03-23T12:30:59.002Z,10.48
2023-03-23T12:31:58.981Z,10.56
2023-03-23T12:32:58.968Z,10.67
2023-03-23T12:33:58.955Z,10.73
2023-03-23T12:34:58.964Z,10.76
2023-03-23T12:35:59.054Z,10.70
2023-03-23T12:36:58.900Z,10.71
2023-03-23T12:37:58.922Z,10.85
2023-03-23T12:38:58.886Z,10.79
2023-03-23T12:39:58.853Z,10.86
2023-03-23T12:40:58.872Z,10.96
2023-03-23T12:41:58.822Z,10.97
2023-03-23T12:42:58.805Z,10.88
2023-03-23T12:43:58.789Z,10.88
2023-03-23T12:44:58.778Z,11.00
2023-03-23T12:45:58.824Z,11.03
2023-03-23T12:46:58.741Z,11.22
2023-03-23T12:47:58.728Z,11.36
2023-03-23T12:48:58.711Z,11.40
2023-03-23T12:49:58.693Z,11.49
2023-03-23T12:50:58.686Z,11.51
2023-03-23T12:51:58.761Z,11.57